Time;durP1;ratioP1;P1;durP2;ratioP2;P2;SDS_P1;SDS_P2;PMS_P1;PMS_P2;Temp;Humidity;BMP_temperature;BMP_pressure;BME280_temperature;BME280_humidity;BME280_pressure;Samples;Min_cycle;Max_cycle;Signal;HPM_P1;HPM_P2
2022/09/11 00:01:42;;;;;;;0.98;0.60;;;23.40;90.90;;;;;;5072672;28;45455;-73
2022/09/11 00:04:09;;;;;;;0.50;0.50;;;23.40;90.90;;;;;;5068337;28;45361;-74
2022/09/11 00:06:37;;;;;;;0.50;0.50;;;23.50;90.90;;;;;;5064650;28;45417;-73
2022/09/11 00:09:06;;;;;;;1.05;0.85;;;23.40;90.90;;;;;;5065076;28;47554;-74
2022/09/11 00:11:34;;;;;;;0.55;0.55;;;23.40;90.90;;;;;;5085029;28;45478;-74
2022/09/11 00:14:02;;;;;;;1.10;0.82;;;23.50;90.90;;;;;;5070963;28;45417;-75
2022/09/11 00:16:33;;;;;;;0.70;0.70;;;23.40;90.80;;;;;;5068356;28;45610;-74
2022/09/11 00:19:02;;;;;;;0.85;0.55;;;23.40;90.80;;;;;;5067802;28;46778;-74
2022/09/11 00:21:29;;;;;;;0.75;0.60;;;23.40;90.80;;;;;;5057138;28;45707;-74
2022/09/11 00:23:56;;;;;;;1.08;0.75;;;23.40;90.80;;;;;;5064776;28;45286;-74
2022/09/11 00:26:24;;;;;;;1.08;0.70;;;23.50;90.80;;;;;;5067788;28;45531;-74
2022/09/11 00:28:51;;;;;;;0.77;0.70;;;23.40;90.80;;;;;;5067733;28;46665;-74
2022/09/11 00:31:20;;;;;;;2.38;0.65;;;23.40;90.80;;;;;;5067775;28;45160;-74
2022/09/11 00:33:48;;;;;;;0.93;0.70;;;23.40;90.70;;;;;;5067983;28;45309;-74
2022/09/11 00:36:18;;;;;;;0.60;0.60;;;23.40;90.70;;;;;;5060951;28;45752;-74
2022/09/11 00:38:46;;;;;;;0.40;0.40;;;23.40;90.70;;;;;;5047929;28;47029;-74
2022/09/11 00:41:17;;;;;;;0.95;0.65;;;23.40;90.70;;;;;;5057873;28;45498;-74
2022/09/11 00:43:54;;;;;;;0.80;0.63;;;23.40;90.70;;;;;;5061767;28;45201;-74
2022/09/11 00:46:22;;;;;;;0.45;0.45;;;23.40;90.70;;;;;;5047811;28;45456;-74
2022/09/11 00:48:51;;;;;;;0.50;0.47;;;23.40;90.70;;;;;;5066061;28;46327;-74
2022/09/11 00:51:24;;;;;;;1.27;0.60;;;23.40;90.70;;;;;;5067188;28;45271;-74
2022/09/11 00:53:53;;;;;;;0.70;0.60;;;23.40;90.70;;;;;;5066645;28;45530;-75
2022/09/11 00:56:21;;;;;;;0.82;0.70;;;23.40;90.70;;;;;;5067586;28;45585;-74
2022/09/11 00:59:25;;;;;;;0.77;0.57;;;23.40;90.60;;;;;;5068133;28;47911;-74
2022/09/11 01:01:52;;;;;;;0.90;0.77;;;23.40;90.60;;;;;;5067150;28;45347;-74
2022/09/11 01:04:21;;;;;;;0.65;0.57;;;23.40;91.00;;;;;;5066834;28;45265;-74
2022/09/11 01:06:50;;;;;;;1.00;0.70;;;23.40;90.50;;;;;;5067205;28;45456;-74
2022/09/11 01:09:17;;;;;;;0.50;0.50;;;23.40;90.50;;;;;;5066610;28;47993;-74
2022/09/11 01:11:50;;;;;;;0.70;0.70;;;23.40;90.50;;;;;;5067255;28;45230;-74
2022/09/11 01:14:29;;;;;;;0.80;0.80;;;23.40;90.50;;;;;;5082792;28;45310;-74
2022/09/11 01:17:07;;;;;;;1.25;0.55;;;23.40;90.40;;;;;;5087599;28;45242;-74
2022/09/11 01:19:51;;;;;;;2.25;0.50;;;23.40;90.80;;;;;;5087206;28;46804;-74
2022/09/11 01:22:40;;;;;;;1.23;0.57;;;23.30;90.40;;;;;;5087044;28;45268;-74
2022/09/11 01:25:23;;;;;;;1.60;0.75;;;23.40;90.40;;;;;;5085986;28;45252;-74
2022/09/11 01:28:10;;;;;;;0.70;0.70;;;23.40;90.30;;;;;;5066537;28;45256;-74
2022/09/11 01:30:40;;;;;;;0.50;0.50;;;23.40;90.40;;;;;;5060456;28;48062;-74
2022/09/11 01:33:16;;;;;;;1.00;0.80;;;23.40;90.40;;;;;;5077994;28;45247;-74
2022/09/11 01:35:52;;;;;;;0.52;0.50;;;23.40;90.40;;;;;;5087083;28;45259;-74
2022/09/11 01:38:25;;;;;;;0.55;0.55;;;23.30;90.40;;;;;;5067690;28;45299;-74
2022/09/11 01:40:54;;;;;;;0.88;0.50;;;23.30;90.40;;;;;;5066536;28;45471;-75
2022/09/11 01:43:27;;;;;;;0.70;0.70;;;23.30;90.40;;;;;;5066430;28;45235;-74
2022/09/11 01:45:56;;;;;;;0.65;0.60;;;23.30;90.40;;;;;;5066356;28;45325;-74
2022/09/11 01:48:25;;;;;;;1.33;0.90;;;23.30;90.40;;;;;;5066705;28;45293;-74
2022/09/11 01:50:55;;;;;;;0.57;0.52;;;23.30;90.30;;;;;;5065912;28;47457;-74
2022/09/11 01:53:25;;;;;;;0.70;0.70;;;23.30;90.30;;;;;;5065702;28;45229;-74
2022/09/11 01:56:01;;;;;;;0.98;0.60;;;23.30;90.30;;;;;;5066252;28;45191;-74
2022/09/11 01:58:31;;;;;;;0.60;0.60;;;23.30;90.30;;;;;;5078059;28;45400;-74
2022/09/11 02:01:04;;;;;;;0.60;0.60;;;23.30;90.30;;;;;;5065463;28;47597;-74
2022/09/11 02:03:36;;;;;;;1.50;1.00;;;23.30;90.30;;;;;;5065997;28;45796;-74
2022/09/11 02:06:07;;;;;;;1.05;0.80;;;23.30;90.30;;;;;;5066596;28;45265;-74
2022/09/11 02:08:43;;;;;;;1.70;0.90;;;23.30;90.30;;;;;;5066105;28;45609;-74
2022/09/11 02:11:12;;;;;;;0.77;0.63;;;23.30;90.30;;;;;;5065873;28;46290;-74
2022/09/11 02:13:49;;;;;;;1.30;0.80;;;23.30;90.30;;;;;;5065220;28;45497;-74
2022/09/11 02:16:21;;;;;;;1.10;0.88;;;23.30;90.30;;;;;;5065046;28;45270;-74
2022/09/11 02:18:57;;;;;;;1.05;0.93;;;23.30;90.30;;;;;;5066267;28;45455;-74
2022/09/11 02:21:24;;;;;;;0.82;0.82;;;23.30;90.20;;;;;;5066064;28;46076;-74
2022/09/11 02:23:54;;;;;;;1.30;0.90;;;23.30;90.20;;;;;;5074457;28;45455;-74
2022/09/11 02:26:23;;;;;;;1.13;1.00;;;23.30;90.60;;;;;;5073079;28;45422;-75
2022/09/11 02:28:53;;;;;;;1.77;1.00;;;23.30;90.20;;;;;;5065326;28;45645;-75
2022/09/11 02:31:20;;;;;;;1.75;1.00;;;23.30;90.20;;;;;;5065389;28;47333;-74
2022/09/11 02:33:47;;;;;;;1.92;0.90;;;23.30;90.20;;;;;;5067422;28;45977;-74
2022/09/11 02:36:29;;;;;;;1.50;1.00;;;23.30;90.20;;;;;;5065641;28;45278;-75
2022/09/11 02:39:08;;;;;;;1.92;1.30;;;23.30;90.20;;;;;;5065547;28;45566;-74
2022/09/11 02:41:46;;;;;;;1.10;1.00;;;23.20;90.20;;;;;;5064922;28;46417;-74
2022/09/11 02:44:24;;;;;;;1.65;1.10;;;23.30;90.20;;;;;;5065345;28;45385;-74
2022/09/11 02:47:11;;;;;;;1.20;1.10;;;23.30;90.20;;;;;;5063937;28;45304;-74
2022/09/11 02:49:45;;;;;;;1.42;1.33;;;23.30;90.30;;;;;;5065903;28;45167;-74
2022/09/11 02:52:21;;;;;;;1.52;1.10;;;23.30;90.20;;;;;;5064891;28;46361;-74
2022/09/11 02:54:55;;;;;;;1.15;1.05;;;23.20;90.20;;;;;;5066013;28;45349;-74
2022/09/11 02:57:29;;;;;;;1.55;1.20;;;23.20;90.20;;;;;;5065312;28;45239;-74
2022/09/11 02:59:59;;;;;;;1.17;1.05;;;23.20;90.20;;;;;;5052550;28;45270;-74
2022/09/11 03:02:28;;;;;;;1.30;1.20;;;23.20;90.20;;;;;;5064987;28;45514;-75
2022/09/11 03:04:55;;;;;;;1.10;1.00;;;23.20;90.20;;;;;;5044709;28;45440;-74
2022/09/11 03:07:23;;;;;;;1.30;1.17;;;23.20;90.20;;;;;;5044824;28;45234;-75
2022/09/11 03:09:50;;;;;;;1.17;0.93;;;23.20;90.20;;;;;;5045878;28;45251;-74
2022/09/11 03:12:17;;;;;;;1.20;1.02;;;23.20;90.20;;;;;;5064645;28;46629;-74
2022/09/11 03:14:44;;;;;;;1.20;1.10;;;23.20;90.20;;;;;;5064342;28;45307;-74
2022/09/11 03:17:12;;;;;;;1.40;1.23;;;23.20;90.20;;;;;;5060032;28;45497;-74
2022/09/11 03:19:39;;;;;;;1.42;1.20;;;23.20;90.20;;;;;;5065015;28;45553;-74
2022/09/11 03:22:06;;;;;;;1.75;1.30;;;23.20;90.20;;;;;;5064479;28;47888;-74
2022/09/11 03:24:32;;;;;;;1.05;0.93;;;23.20;90.20;;;;;;5064715;28;45297;-75
2022/09/11 03:26:59;;;;;;;1.83;1.20;;;23.20;90.20;;;;;;5055324;28;45210;-74
2022/09/11 03:29:26;;;;;;;1.33;1.23;;;23.20;90.20;;;;;;5063656;28;45445;-74
2022/09/11 03:31:53;;;;;;;1.60;1.40;;;23.20;90.20;;;;;;5064569;28;47236;-75
2022/09/11 03:34:21;;;;;;;1.40;1.30;;;23.20;90.20;;;;;;5064613;28;45259;-75
2022/09/11 03:36:48;;;;;;;1.52;1.40;;;23.20;90.20;;;;;;5064787;28;45169;-74
2022/09/11 03:39:15;;;;;;;1.25;1.05;;;23.20;90.10;;;;;;5064866;28;45423;-74
2022/09/11 03:41:42;;;;;;;3.25;1.40;;;23.20;90.10;;;;;;5064233;28;45265;-74
2022/09/11 03:44:08;;;;;;;1.58;1.38;;;23.20;90.10;;;;;;5064283;28;45799;-74
2022/09/11 03:46:35;;;;;;;1.48;1.33;;;23.20;90.10;;;;;;5064192;28;45275;-74
2022/09/11 03:49:02;;;;;;;1.63;1.30;;;23.20;90.10;;;;;;5064477;28;45579;-74
2022/09/11 03:51:31;;;;;;;2.50;1.20;;;23.20;90.10;;;;;;5067255;28;48142;-74
2022/09/11 03:53:59;;;;;;;1.55;1.20;;;23.20;90.10;;;;;;5064326;28;45412;-74
2022/09/11 03:56:26;;;;;;;1.65;1.40;;;23.20;90.10;;;;;;5064076;28;45317;-74
2022/09/11 03:58:56;;;;;;;1.13;1.05;;;23.20;90.10;;;;;;5064097;28;45556;-74
2022/09/11 04:01:23;;;;;;;1.35;1.10;;;23.20;90.10;;;;;;5063855;28;45365;-74
2022/09/11 04:03:50;;;;;;;2.42;1.20;;;23.20;90.10;;;;;;5064136;28;45369;-74
2022/09/11 04:06:17;;;;;;;2.15;1.33;;;23.20;90.10;;;;;;5061209;28;45211;-74
2022/09/11 04:08:46;;;;;;;1.30;1.20;;;23.20;90.10;;;;;;5077327;28;45607;-74
2022/09/11 04:11:13;;;;;;;1.48;1.30;;;23.20;90.10;;;;;;5084369;28;45407;-74
2022/09/11 04:13:42;;;;;;;1.42;1.30;;;23.20;90.10;;;;;;5074665;28;45415;-74
2022/09/11 04:16:12;;;;;;;1.92;1.35;;;23.20;90.10;;;;;;5073383;28;45356;-74
2022/09/11 04:18:40;;;;;;;1.20;1.10;;;23.20;90.10;;;;;;5066196;28;45248;-74
2022/09/11 04:21:08;;;;;;;1.55;1.38;;;23.20;90.10;;;;;;5063377;28;45359;-74
2022/09/11 04:23:35;;;;;;;1.45;1.30;;;23.20;90.10;;;;;;5061747;28;45335;-74
2022/09/11 04:26:12;;;;;;;1.30;1.20;;;23.20;90.10;;;;;;5064086;28;45464;-74
2022/09/11 04:28:39;;;;;;;1.20;1.10;;;23.20;90.10;;;;;;5063625;28;45446;-74
2022/09/11 04:31:06;;;;;;;1.27;1.17;;;23.20;90.10;;;;;;5063539;28;46559;-74
2022/09/11 04:33:34;;;;;;;1.48;1.10;;;23.20;90.10;;;;;;5063546;28;45257;-74
2022/09/11 04:36:05;;;;;;;2.15;1.40;;;23.20;90.10;;;;;;5063946;28;45399;-74
2022/09/11 04:38:32;;;;;;;1.38;1.20;;;23.20;90.10;;;;;;5067043;28;45261;-74
2022/09/11 04:41:01;;;;;;;1.75;1.30;;;23.20;90.10;;;;;;5077077;27;45257;-74
2022/09/11 04:43:30;;;;;;;1.83;1.50;;;23.20;90.00;;;;;;5050387;28;45353;-74
2022/09/11 04:46:00;;;;;;;1.98;1.58;;;23.20;90.00;;;;;;5066751;28;45434;-74
2022/09/11 04:48:27;;;;;;;1.40;1.30;;;23.20;90.10;;;;;;5067124;28;45387;-74
2022/09/11 04:51:00;;;;;;;1.40;1.30;;;23.20;90.00;;;;;;5066230;28;46471;-74
2022/09/11 04:53:27;;;;;;;2.25;1.48;;;23.20;90.00;;;;;;5066385;28;45430;-74
2022/09/11 04:56:02;;;;;;;1.42;1.15;;;23.20;90.00;;;;;;5066942;28;45321;-74
2022/09/11 04:58:30;;;;;;;1.63;1.23;;;23.20;90.00;;;;;;5067410;28;45313;-75
2022/09/11 05:00:57;;;;;;;1.25;1.15;;;23.20;90.00;;;;;;5066779;28;47292;-74
2022/09/11 05:03:24;;;;;;;1.20;1.10;;;23.20;90.00;;;;;;5066635;28;45241;-74
2022/09/11 05:05:51;;;;;;;1.13;1.02;;;23.20;90.00;;;;;;5066923;28;45445;-75
2022/09/11 05:08:19;;;;;;;1.42;1.33;;;23.20;90.00;;;;;;5066695;28;45263;-74
2022/09/11 05:10:46;;;;;;;1.20;1.10;;;23.20;90.00;;;;;;5066773;28;47933;-74
2022/09/11 05:13:14;;;;;;;1.35;1.25;;;23.20;90.00;;;;;;5066298;28;45369;-74
2022/09/11 05:15:42;;;;;;;1.15;1.02;;;23.20;90.00;;;;;;5066276;28;45329;-74
2022/09/11 05:18:10;;;;;;;1.75;1.45;;;23.20;90.00;;;;;;5066815;28;45567;-74
2022/09/11 05:20:36;;;;;;;2.10;1.30;;;23.20;90.00;;;;;;5066338;28;46652;-74
2022/09/11 05:23:03;;;;;;;1.20;1.10;;;23.20;90.00;;;;;;5066337;28;45289;-74
2022/09/11 05:25:31;;;;;;;1.25;1.15;;;23.20;90.00;;;;;;5066292;28;45383;-74
2022/09/11 05:27:57;;;;;;;1.30;1.20;;;23.20;90.00;;;;;;5066990;28;45340;-74
2022/09/11 05:30:24;;;;;;;1.50;1.10;;;23.20;90.00;;;;;;5066353;28;46601;-74
2022/09/11 05:32:54;;;;;;;1.17;1.08;;;23.20;90.00;;;;;;5066217;28;45315;-74
2022/09/11 05:35:23;;;;;;;1.63;1.20;;;23.20;90.00;;;;;;5066192;28;45350;-74
2022/09/11 05:37:56;;;;;;;1.77;1.40;;;23.20;90.00;;;;;;5065893;28;45609;-74
2022/09/11 05:40:22;;;;;;;1.63;1.25;;;23.20;90.00;;;;;;5065573;28;46587;-74
2022/09/11 05:42:49;;;;;;;1.30;1.17;;;23.20;90.00;;;;;;5065983;28;45398;-74
2022/09/11 05:45:16;;;;;;;2.47;2.00;;;23.20;90.00;;;;;;5066481;28;45215;-75
2022/09/11 05:47:43;;;;;;;1.23;1.13;;;23.20;90.00;;;;;;5066044;28;45355;-74
2022/09/11 05:50:11;;;;;;;1.25;1.08;;;23.20;89.90;;;;;;5066077;28;47727;-74
2022/09/11 05:52:38;;;;;;;1.13;1.02;;;23.20;90.00;;;;;;5065161;28;45357;-74
2022/09/11 05:55:05;;;;;;;1.27;0.95;;;23.20;89.90;;;;;;5065691;28;45319;-74
2022/09/11 05:57:32;;;;;;;2.90;1.17;;;23.20;89.90;;;;;;5065762;28;45591;-74
2022/09/11 05:59:59;;;;;;;1.30;1.20;;;23.20;90.00;;;;;;5065975;28;45394;-74
2022/09/11 06:02:26;;;;;;;1.20;1.10;;;23.20;89.90;;;;;;5066096;28;45440;-74
2022/09/11 06:04:53;;;;;;;1.45;1.10;;;23.20;89.90;;;;;;5065698;28;45369;-74
2022/09/11 06:07:23;;;;;;;1.33;0.93;;;23.20;90.00;;;;;;5065451;28;45445;-74
2022/09/11 06:09:50;;;;;;;1.27;1.10;;;23.20;89.90;;;;;;5065694;28;46391;-74
2022/09/11 06:12:17;;;;;;;1.77;1.20;;;23.20;90.00;;;;;;5075419;28;45286;-74
2022/09/11 06:14:44;;;;;;;1.93;1.10;;;23.20;90.00;;;;;;5066170;28;45489;-74
2022/09/11 06:17:24;;;;;;;3.00;1.00;;;23.20;90.00;;;;;;5066774;28;45327;-74
2022/09/11 06:19:51;;;;;;;1.20;0.95;;;23.20;90.00;;;;;;5077722;28;47295;-75
2022/09/11 06:22:17;;;;;;;0.90;0.90;;;23.20;90.00;;;;;;5086592;28;45299;-75
2022/09/11 06:24:46;;;;;;;1.10;0.90;;;23.20;90.00;;;;;;5074847;28;45407;-74
2022/09/11 06:27:19;;;;;;;1.30;0.98;;;23.20;90.00;;;;;;5066112;28;45489;-74
2022/09/11 06:29:46;;;;;;;1.73;1.15;;;23.20;90.00;;;;;;5064652;28;47491;-74
2022/09/11 06:32:12;;;;;;;1.35;1.00;;;23.20;90.00;;;;;;5067934;28;45364;-74
2022/09/11 06:34:39;;;;;;;1.70;1.20;;;23.20;90.00;;;;;;5064835;28;45374;-74
2022/09/11 06:37:06;;;;;;;1.83;1.20;;;23.20;90.00;;;;;;5065279;28;45305;-74
2022/09/11 06:39:33;;;;;;;1.67;1.10;;;23.20;90.00;;;;;;5064418;28;46056;-75
2022/09/11 06:42:02;;;;;;;1.20;1.10;;;23.20;90.00;;;;;;5061833;28;46032;-73
2022/09/11 06:44:29;;;;;;;1.25;1.00;;;23.20;90.00;;;;;;5044907;28;45278;-74
2022/09/11 06:46:56;;;;;;;0.98;0.90;;;23.20;90.00;;;;;;5044898;28;45191;-74
2022/09/11 06:49:23;;;;;;;1.35;1.10;;;23.20;89.90;;;;;;5054925;28;48316;-75
2022/09/11 06:51:51;;;;;;;1.42;0.90;;;23.20;90.00;;;;;;5064281;28;45718;-74
2022/09/11 06:54:18;;;;;;;1.30;1.20;;;23.20;90.00;;;;;;5064239;28;45300;-73
2022/09/11 06:56:45;;;;;;;1.60;0.90;;;23.20;90.00;;;;;;5063921;28;45327;-74
2022/09/11 06:59:13;;;;;;;1.25;1.00;;;23.20;90.00;;;;;;5064105;28;47572;-74
2022/09/11 07:01:40;;;;;;;1.40;0.80;;;23.20;90.00;;;;;;5064120;28;45470;-74
2022/09/11 07:04:06;;;;;;;1.17;1.00;;;23.20;90.00;;;;;;5063834;28;45230;-74
2022/09/11 07:06:34;;;;;;;1.77;1.23;;;23.20;90.00;;;;;;5063936;28;45297;-75
2022/09/11 07:09:01;;;;;;;0.95;0.95;;;23.20;90.00;;;;;;5063918;28;45757;-74
2022/09/11 07:11:31;;;;;;;1.05;0.95;;;23.20;90.00;;;;;;5062973;28;45484;-74
2022/09/11 07:13:58;;;;;;;1.30;1.02;;;23.20;90.00;;;;;;5064525;28;45344;-74
2022/09/11 07:16:26;;;;;;;1.30;1.20;;;23.20;90.00;;;;;;5062813;28;45462;-74
2022/09/11 07:18:53;;;;;;;1.10;0.90;;;23.20;90.00;;;;;;5064275;28;48245;-75
2022/09/11 07:21:21;;;;;;;1.05;0.95;;;23.20;90.00;;;;;;5063678;28;45345;-73
2022/09/11 07:23:53;;;;;;;1.58;1.20;;;23.30;90.00;;;;;;5080349;28;45428;-74
2022/09/11 07:26:20;;;;;;;1.30;1.20;;;23.20;90.00;;;;;;5065788;28;45363;-74
2022/09/11 07:28:49;;;;;;;1.25;1.00;;;23.20;90.00;;;;;;5063840;28;48393;-74
2022/09/11 07:31:17;;;;;;;1.02;0.93;;;23.20;90.00;;;;;;5063168;28;45249;-73
2022/09/11 07:33:47;;;;;;;1.30;1.00;;;23.20;90.00;;;;;;5063555;28;45525;-74
2022/09/11 07:36:17;;;;;;;1.00;0.85;;;23.20;90.00;;;;;;5063211;28;45586;-74
2022/09/11 07:38:45;;;;;;;1.00;0.90;;;23.20;90.00;;;;;;5063880;28;45479;-75
2022/09/11 07:41:13;;;;;;;1.40;0.70;;;23.20;90.00;;;;;;5063943;28;45415;-74
2022/09/11 07:43:41;;;;;;;1.08;0.98;;;23.20;89.90;;;;;;5067030;28;45318;-74
2022/09/11 07:46:10;;;;;;;1.08;0.80;;;23.20;90.00;;;;;;5065867;28;45590;-73
2022/09/11 07:48:38;;;;;;;0.80;0.80;;;23.20;90.00;;;;;;5062258;28;46173;-74
2022/09/11 07:51:08;;;;;;;1.13;1.02;;;23.20;90.00;;;;;;5063998;28;45348;-74
2022/09/11 07:53:38;;;;;;;1.25;0.93;;;23.20;90.00;;;;;;5064519;28;45413;-74
2022/09/11 07:56:14;;;;;;;1.13;0.90;;;23.20;90.00;;;;;;5063953;28;45265;-74
2022/09/11 07:58:42;;;;;;;1.20;1.02;;;23.20;90.00;;;;;;5057769;28;46575;-74
2022/09/11 08:01:11;;;;;;;0.85;0.85;;;23.30;90.00;;;;;;5063331;28;45284;-74
2022/09/11 08:03:38;;;;;;;1.25;1.00;;;23.20;89.90;;;;;;5071583;28;45366;-74
2022/09/11 08:06:09;;;;;;;1.10;1.00;;;23.20;89.90;;;;;;5064006;28;45285;-75
2022/09/11 08:08:37;;;;;;;1.00;0.85;;;23.20;89.80;;;;;;5060866;28;47660;-73
2022/09/11 08:11:05;;;;;;;1.23;0.80;;;23.20;89.90;;;;;;5063028;28;45245;-74
2022/09/11 08:13:32;;;;;;;1.15;0.80;;;23.20;89.90;;;;;;5053162;28;45471;-74
2022/09/11 08:16:00;;;;;;;0.93;0.88;;;23.30;90.00;;;;;;5060477;28;45309;-74
2022/09/11 08:18:28;;;;;;;0.98;0.80;;;23.30;90.00;;;;;;5060664;28;47517;-74
2022/09/11 08:21:02;;;;;;;1.00;0.90;;;23.20;89.90;;;;;;5065716;28;45443;-74
2022/09/11 08:23:31;;;;;;;0.82;0.80;;;23.30;89.90;;;;;;5058732;28;45229;-74
2022/09/11 08:26:04;;;;;;;1.10;0.80;;;23.20;89.90;;;;;;5067177;28;45499;-74
2022/09/11 08:28:31;;;;;;;0.68;0.68;;;23.30;89.90;;;;;;5065770;28;46460;-74
2022/09/11 08:30:58;;;;;;;1.30;0.90;;;23.20;89.80;;;;;;5067883;28;45334;-74
2022/09/11 08:33:25;;;;;;;1.23;0.90;;;23.30;89.90;;;;;;5062405;28;45479;-74
2022/09/11 08:35:51;;;;;;;1.25;0.95;;;23.30;89.90;;;;;;5066462;28;45489;-74
2022/09/11 08:38:18;;;;;;;1.40;0.95;;;23.30;89.80;;;;;;5067039;28;46122;-75
2022/09/11 08:40:47;;;;;;;1.00;0.90;;;23.30;89.80;;;;;;5067600;28;45295;-74
2022/09/11 08:43:20;;;;;;;0.85;0.70;;;23.20;89.70;;;;;;5067196;28;45351;-74
2022/09/11 08:45:50;;;;;;;0.70;0.70;;;23.30;89.70;;;;;;5066757;28;45537;-74
2022/09/11 08:48:21;;;;;;;0.90;0.80;;;23.20;89.70;;;;;;5066504;28;46905;-74
2022/09/11 08:50:48;;;;;;;1.08;0.98;;;23.30;89.80;;;;;;5066859;28;45626;-74
2022/09/11 08:53:18;;;;;;;0.98;0.85;;;23.30;89.80;;;;;;5066598;28;45563;-73
2022/09/11 08:55:50;;;;;;;0.60;0.60;;;23.30;89.90;;;;;;5066628;28;45718;-73
2022/09/11 08:58:24;;;;;;;1.33;0.85;;;23.20;89.70;;;;;;5064058;28;46325;-74
2022/09/11 09:00:59;;;;;;;1.13;0.93;;;23.30;89.80;;;;;;5066505;28;45365;-74
2022/09/11 09:03:45;;;;;;;1.45;1.20;;;23.20;89.70;;;;;;5066604;28;45489;-74
2022/09/11 09:06:36;;;;;;;1.50;1.00;;;23.20;89.70;;;;;;5063495;28;45454;-74
2022/09/11 09:09:11;;;;;;;1.73;1.10;;;23.20;89.60;;;;;;5072670;28;46992;-74
2022/09/11 09:11:47;;;;;;;1.58;1.10;;;23.30;89.70;;;;;;5086715;28;45341;-74
2022/09/11 09:14:31;;;;;;;1.02;0.82;;;23.30;89.80;;;;;;5086889;28;45317;-74
2022/09/11 09:17:02;;;;;;;1.63;0.88;;;23.30;89.70;;;;;;5086964;28;45396;-74
2022/09/11 09:19:33;;;;;;;1.48;1.20;;;23.30;89.70;;;;;;5086512;28;46395;-74
2022/09/11 09:22:07;;;;;;;1.52;1.20;;;23.30;89.70;;;;;;5085169;28;45320;-74
2022/09/11 09:24:41;;;;;;;1.25;1.13;;;23.30;89.70;;;;;;5086614;28;45492;-74
2022/09/11 09:27:15;;;;;;;1.13;0.85;;;23.30;89.60;;;;;;5086219;27;45348;-75
2022/09/11 09:29:46;;;;;;;1.50;1.00;;;23.30;89.60;;;;;;5087041;28;47618;-74
2022/09/11 09:32:19;;;;;;;1.30;1.10;;;23.30;89.70;;;;;;5087197;28;45426;-74
2022/09/11 09:35:13;;;;;;;1.27;1.10;;;23.30;89.60;;;;;;5077197;28;45268;-74
2022/09/11 09:37:40;;;;;;;1.40;0.93;;;23.30;89.60;;;;;;5067074;28;45403;-74
2022/09/11 09:40:09;;;;;;;1.27;1.00;;;23.20;89.40;;;;;;5065700;28;47977;-74
2022/09/11 09:43:09;;;;;;;1.25;1.05;;;23.20;89.50;;;;;;5072654;28;45472;-74
2022/09/11 09:45:44;;;;;;;1.50;0.82;;;23.20;89.50;;;;;;5051281;28;45450;-74
2022/09/11 09:48:12;;;;;;;1.45;1.10;;;23.20;89.50;;;;;;5067636;28;45355;-74
2022/09/11 09:50:41;;;;;;;1.52;1.10;;;23.20;89.50;;;;;;5077736;28;46295;-74
2022/09/11 09:53:15;;;;;;;1.00;0.90;;;23.20;89.50;;;;;;5066005;28;45387;-74
2022/09/11 09:55:43;;;;;;;1.42;1.10;;;23.20;89.60;;;;;;5066281;28;45582;-74
2022/09/11 09:58:11;;;;;;;1.27;0.98;;;23.20;89.60;;;;;;5065685;28;45262;-74
2022/09/11 10:00:40;;;;;;;1.50;1.10;;;23.20;89.70;;;;;;5065629;28;46362;-75
2022/09/11 10:03:20;;;;;;;0.85;0.80;;;23.20;89.70;;;;;;5065736;28;45340;-74
2022/09/11 10:05:49;;;;;;;1.25;1.00;;;23.20;89.60;;;;;;5062028;28;45433;-72
2022/09/11 10:08:28;;;;;;;1.80;1.30;;;23.20;89.70;;;;;;5060520;28;45316;-72
2022/09/11 10:10:57;;;;;;;1.52;1.10;;;23.30;90.10;;;;;;5059471;28;45571;-73
2022/09/11 10:13:27;;;;;;;3.30;1.50;;;23.30;90.10;;;;;;5062666;28;45300;-72
2022/09/11 10:15:58;;;;;;;4.07;1.65;;;23.30;90.00;;;;;;5062457;28;45432;-72
2022/09/11 10:18:34;;;;;;;2.05;1.38;;;23.30;90.00;;;;;;5063955;28;45679;-72
2022/09/11 10:21:28;;;;;;;2.47;1.20;;;23.30;90.00;;;;;;5061789;28;46538;-72
2022/09/11 10:23:56;;;;;;;1.55;1.30;;;23.30;90.00;;;;;;5059849;28;45452;-70
2022/09/11 10:26:31;;;;;;;1.33;1.10;;;23.30;90.00;;;;;;5057889;28;45500;-73
2022/09/11 10:29:06;;;;;;;1.80;1.20;;;23.30;90.00;;;;;;5059584;28;45266;-73
2022/09/11 10:31:34;;;;;;;2.38;1.30;;;23.40;90.00;;;;;;5051617;28;48160;-71
2022/09/11 10:34:01;;;;;;;1.92;1.17;;;23.40;90.10;;;;;;5068597;28;45437;-72
2022/09/11 10:36:30;;;;;;;1.52;1.40;;;23.40;90.10;;;;;;5064393;28;45401;-73
2022/09/11 10:38:58;;;;;;;2.55;1.20;;;23.40;90.00;;;;;;5061532;28;45420;-72
2022/09/11 10:41:26;;;;;;;2.58;1.50;;;23.40;90.00;;;;;;5062418;28;45357;-72
2022/09/11 10:43:58;;;;;;;2.22;1.20;;;23.40;90.10;;;;;;5062442;28;45710;-69
2022/09/11 10:46:37;;;;;;;20.10;2.67;;;23.40;90.00;;;;;;5061563;28;45432;-71
2022/09/11 10:49:17;;;;;;;29.73;3.88;;;23.40;90.20;;;;;;5061973;28;45440;-71
2022/09/11 10:51:59;;;;;;;20.50;3.20;;;23.40;90.40;;;;;;5059862;28;47058;-72
2022/09/11 10:54:40;;;;;;;15.82;2.40;;;23.40;90.00;;;;;;5058986;28;45433;-71
2022/09/11 10:57:16;;;;;;;12.45;2.70;;;23.40;89.90;;;;;;5061897;28;45412;-73
2022/09/11 11:00:01;;;;;;;16.75;2.25;;;23.40;89.80;;;;;;5058207;28;45360;-71
2022/09/11 11:02:32;;;;;;;3.75;2.00;;;23.40;89.70;;;;;;5050919;28;45486;-71
2022/09/11 11:05:03;;;;;;;6.07;1.88;;;23.40;89.80;;;;;;5061686;28;45441;-72
2022/09/11 11:07:52;;;;;;;4.47;1.50;;;23.40;89.80;;;;;;5052328;28;45361;-71
2022/09/11 11:10:32;;;;;;;4.88;1.67;;;23.40;89.70;;;;;;5062725;28;45264;-71
2022/09/11 11:13:12;;;;;;;4.03;1.67;;;23.40;89.40;;;;;;5060613;28;48200;-71
2022/09/11 11:15:57;;;;;;;2.58;1.40;;;23.40;89.40;;;;;;5057038;28;45253;-71
2022/09/11 11:18:41;;;;;;;2.03;1.48;;;23.40;89.20;;;;;;5061504;28;45365;-71
2022/09/11 11:21:22;;;;;;;3.30;1.33;;;23.40;89.30;;;;;;5062460;28;45405;-71
2022/09/11 11:24:04;;;;;;;5.40;1.75;;;23.40;89.20;;;;;;5058743;28;45505;-71
2022/09/11 11:26:49;;;;;;;3.72;1.40;;;23.40;89.20;;;;;;5059897;28;45467;-72
2022/09/11 11:29:30;;;;;;;3.13;1.40;;;23.40;89.20;;;;;;5060885;28;45602;-71
2022/09/11 11:32:14;;;;;;;3.22;1.30;;;23.40;89.20;;;;;;5060696;28;45183;-71
2022/09/11 11:35:00;;;;;;;1.70;1.45;;;23.40;89.10;;;;;;5052642;28;46068;-71
2022/09/11 11:37:33;;;;;;;2.50;1.30;;;23.40;89.20;;;;;;5047199;28;45709;-72
2022/09/11 11:40:04;;;;;;;1.85;1.20;;;23.40;89.20;;;;;;5061463;28;45399;-72
2022/09/11 11:42:37;;;;;;;2.78;1.40;;;23.40;89.20;;;;;;5054317;28;45566;-73
2022/09/11 11:45:10;;;;;;;2.90;1.10;;;23.40;89.20;;;;;;5061727;28;45401;-72
2022/09/11 11:47:41;;;;;;;2.15;1.70;;;23.40;89.20;;;;;;5059427;28;45508;-71
2022/09/11 11:50:24;;;;;;;2.63;1.45;;;23.40;89.20;;;;;;5060773;28;45350;-71
2022/09/11 11:52:59;;;;;;;3.15;1.70;;;23.40;89.10;;;;;;5063585;28;45317;-72
2022/09/11 11:55:32;;;;;;;1.85;1.35;;;23.40;89.10;;;;;;5065391;28;45414;-72
2022/09/11 11:58:06;;;;;;;3.92;1.88;;;23.40;89.20;;;;;;5063908;28;45265;-73
2022/09/11 12:00:39;;;;;;;3.40;2.17;;;23.40;89.10;;;;;;5067746;28;45332;-72
2022/09/11 12:03:13;;;;;;;2.65;1.70;;;23.40;89.20;;;;;;5063732;28;45530;-72
2022/09/11 12:05:41;;;;;;;2.28;1.65;;;23.40;89.00;;;;;;5063857;28;48037;-72
2022/09/11 12:08:13;;;;;;;2.47;1.67;;;23.40;88.90;;;;;;5063908;28;45286;-72
2022/09/11 12:10:44;;;;;;;1.85;1.40;;;23.40;88.80;;;;;;5065213;28;45616;-72
2022/09/11 12:13:15;;;;;;;2.03;1.38;;;23.40;88.90;;;;;;5064650;28;45408;-73
2022/09/11 12:16:02;;;;;;;1.95;1.40;;;23.40;88.80;;;;;;5065726;28;46734;-72
2022/09/11 12:18:30;;;;;;;2.35;1.40;;;23.40;88.70;;;;;;5064706;28;45318;-72
2022/09/11 12:21:30;;;;;;;3.58;1.42;;;23.40;88.70;;;;;;5065548;28;45481;-72
2022/09/11 12:24:19;;;;;;;1.70;1.40;;;23.40;88.50;;;;;;5064330;28;45337;-73
2022/09/11 12:26:46;;;;;;;2.45;1.38;;;23.40;88.60;;;;;;5062652;28;46994;-73
2022/09/11 12:29:50;;;;;;;1.52;1.42;;;23.40;88.90;;;;;;5064602;28;45266;-72
2022/09/11 12:32:39;;;;;;;1.70;1.33;;;23.40;88.80;;;;;;5060221;28;45348;-72
2022/09/11 12:35:18;;;;;;;1.98;1.10;;;23.40;88.50;;;;;;5061535;28;45384;-73
2022/09/11 12:37:49;;;;;;;1.20;1.10;;;23.40;88.40;;;;;;5062025;28;47599;-72
2022/09/11 12:40:23;;;;;;;2.42;1.30;;;23.40;88.30;;;;;;5061893;28;45616;-72
2022/09/11 12:42:59;;;;;;;1.45;1.25;;;23.40;88.40;;;;;;5064322;28;45401;-72
2022/09/11 12:45:34;;;;;;;1.63;1.05;;;23.40;88.30;;;;;;5062923;28;45285;-72
2022/09/11 12:48:12;;;;;;;2.33;1.23;;;23.40;88.20;;;;;;5062974;28;45699;-72
2022/09/11 12:50:48;;;;;;;1.65;1.10;;;23.40;88.00;;;;;;5065148;28;45288;-72
2022/09/11 12:53:18;;;;;;;1.45;1.20;;;23.40;87.90;;;;;;5055665;28;45743;-72
2022/09/11 12:55:59;;;;;;;1.25;1.10;;;23.40;87.90;;;;;;5062546;28;45419;-72
2022/09/11 12:58:35;;;;;;;1.25;1.00;;;23.40;87.80;;;;;;5063349;28;46548;-72
2022/09/11 13:01:07;;;;;;;1.58;1.10;;;23.40;87.80;;;;;;5060538;28;45367;-72
2022/09/11 13:03:36;;;;;;;1.00;0.88;;;23.40;87.60;;;;;;5062967;28;45388;-72
2022/09/11 13:06:06;;;;;;;1.92;1.30;;;23.40;87.60;;;;;;5062979;28;45605;-72
2022/09/11 13:08:37;;;;;;;0.95;0.90;;;23.40;87.60;;;;;;5064166;28;45461;-72